Urmston, United Kingdom
Current Conditions -  °F | °C
As of 7:20 AM on Wednesday 26 Nov 2014 (Local Time) from EGCC Reporting Station
Light Rain Light Rain  
Wind Chill: 39°   Ceiling: 2500
Heat Index: 43°   Visibility: 3mi
Dew Point: 43°   Wind: 6mph
Humidity: 100%   Direction: 350°N
Pressure: 29.94"   Gusts: NA
Location:  53.45°N, 2.35°W
Report Text: EGCC 260720Z 35005KT 5000 -RADZ FEW018 BKN025 06/06 Q1014 NOSIG
Loading
Personal Weather Stations






























Interactive Weather Map New forecast layout! Learn more

10-Day Weather Forecast

Advertisements
Track Severe Weather on mobile